sensor_id;sensor_type;location;lat;lon;timestamp;P1;durP1;ratioP1;P2;durP2;ratioP2
27796;SDS011;15177;50.844;4.412;2023-09-19T00:00:37;10.25;;;2.42;;
27796;SDS011;15177;50.844;4.412;2023-09-19T00:03:05;19.17;;;3.92;;
27796;SDS011;15177;50.844;4.412;2023-09-19T00:05:33;12.57;;;2.97;;
27796;SDS011;15177;50.844;4.412;2023-09-19T00:08:00;10.43;;;2.83;;
27796;SDS011;15177;50.844;4.412;2023-09-19T00:10:30;12.07;;;2.40;;
27796;SDS011;15177;50.844;4.412;2023-09-19T00:12:57;18.30;;;3.42;;
27796;SDS011;15177;50.844;4.412;2023-09-19T00:15:30;12.57;;;2.70;;
27796;SDS011;15177;50.844;4.412;2023-09-19T00:18:00;22.20;;;4.15;;
27796;SDS011;15177;50.844;4.412;2023-09-19T00:20:26;18.77;;;2.88;;
27796;SDS011;15177;50.844;4.412;2023-09-19T00:22:53;18.35;;;3.47;;
27796;SDS011;15177;50.844;4.412;2023-09-19T00:25:19;21.73;;;4.40;;
27796;SDS011;15177;50.844;4.412;2023-09-19T00:27:45;14.25;;;3.70;;
27796;SDS011;15177;50.844;4.412;2023-09-19T00:30:16;12.85;;;2.60;;
27796;SDS011;15177;50.844;4.412;2023-09-19T00:32:46;17.75;;;2.97;;
27796;SDS011;15177;50.844;4.412;2023-09-19T00:35:13;14.20;;;3.28;;
27796;SDS011;15177;50.844;4.412;2023-09-19T00:37:41;17.08;;;2.60;;
27796;SDS011;15177;50.844;4.412;2023-09-19T00:40:08;16.85;;;3.22;;
27796;SDS011;15177;50.844;4.412;2023-09-19T00:42:47;15.50;;;3.22;;
27796;SDS011;15177;50.844;4.412;2023-09-19T00:45:14;16.23;;;2.58;;
27796;SDS011;15177;50.844;4.412;2023-09-19T00:47:45;12.40;;;3.40;;
27796;SDS011;15177;50.844;4.412;2023-09-19T00:50:19;9.80;;;2.70;;
27796;SDS011;15177;50.844;4.412;2023-09-19T00:52:47;21.35;;;3.35;;
27796;SDS011;15177;50.844;4.412;2023-09-19T00:55:15;11.77;;;2.50;;
27796;SDS011;15177;50.844;4.412;2023-09-19T00:57:41;11.43;;;2.75;;
27796;SDS011;15177;50.844;4.412;2023-09-19T01:00:09;16.65;;;3.53;;
27796;SDS011;15177;50.844;4.412;2023-09-19T01:02:39;15.63;;;3.13;;
27796;SDS011;15177;50.844;4.412;2023-09-19T01:05:09;17.35;;;3.80;;
27796;SDS011;15177;50.844;4.412;2023-09-19T01:07:35;19.85;;;3.42;;
27796;SDS011;15177;50.844;4.412;2023-09-19T01:10:03;17.38;;;4.70;;
27796;SDS011;15177;50.844;4.412;2023-09-19T01:13:21;16.77;;;3.33;;
27796;SDS011;15177;50.844;4.412;2023-09-19T01:23:16;23.30;;;3.50;;
27796;SDS011;15177;50.844;4.412;2023-09-19T01:32:01;16.25;;;3.05;;
27796;SDS011;15177;50.844;4.412;2023-09-19T01:34:50;20.80;;;3.15;;
27796;SDS011;15177;50.844;4.412;2023-09-19T01:37:18;15.75;;;3.58;;
27796;SDS011;15177;50.844;4.412;2023-09-19T01:39:46;21.77;;;3.53;;
27796;SDS011;15177;50.844;4.412;2023-09-19T01:44:58;14.52;;;2.67;;
27796;SDS011;15177;50.844;4.412;2023-09-19T01:47:33;20.02;;;3.70;;
27796;SDS011;15177;50.844;4.412;2023-09-19T01:50:03;15.15;;;3.47;;
27796;SDS011;15177;50.844;4.412;2023-09-19T01:52:36;21.95;;;4.07;;
27796;SDS011;15177;50.844;4.412;2023-09-19T01:55:10;12.93;;;2.83;;
27796;SDS011;15177;50.844;4.412;2023-09-19T01:57:51;16.02;;;3.17;;
27796;SDS011;15177;50.844;4.412;2023-09-19T02:00:26;16.90;;;2.90;;
27796;SDS011;15177;50.844;4.412;2023-09-19T02:02:54;18.33;;;3.72;;
27796;SDS011;15177;50.844;4.412;2023-09-19T02:05:23;14.55;;;2.95;;
27796;SDS011;15177;50.844;4.412;2023-09-19T02:07:50;20.65;;;3.28;;
27796;SDS011;15177;50.844;4.412;2023-09-19T02:10:17;19.92;;;3.08;;
27796;SDS011;15177;50.844;4.412;2023-09-19T02:12:43;19.58;;;3.17;;
27796;SDS011;15177;50.844;4.412;2023-09-19T02:15:10;13.38;;;3.35;;
27796;SDS011;15177;50.844;4.412;2023-09-19T02:17:36;20.70;;;2.97;;
27796;SDS011;15177;50.844;4.412;2023-09-19T02:20:01;16.83;;;3.28;;
27796;SDS011;15177;50.844;4.412;2023-09-19T02:22:28;18.17;;;3.58;;
27796;SDS011;15177;50.844;4.412;2023-09-19T02:24:54;13.50;;;3.03;;
27796;SDS011;15177;50.844;4.412;2023-09-19T02:27:23;23.50;;;5.22;;
27796;SDS011;15177;50.844;4.412;2023-09-19T02:29:49;21.33;;;3.65;;
27796;SDS011;15177;50.844;4.412;2023-09-19T02:32:14;21.20;;;3.13;;
27796;SDS011;15177;50.844;4.412;2023-09-19T02:34:42;17.52;;;3.55;;
27796;SDS011;15177;50.844;4.412;2023-09-19T02:37:09;21.30;;;3.70;;
27796;SDS011;15177;50.844;4.412;2023-09-19T02:39:35;16.10;;;3.28;;
27796;SDS011;15177;50.844;4.412;2023-09-19T02:42:01;14.15;;;3.05;;
27796;SDS011;15177;50.844;4.412;2023-09-19T02:44:29;20.92;;;3.45;;
27796;SDS011;15177;50.844;4.412;2023-09-19T02:46:54;26.60;;;3.90;;
27796;SDS011;15177;50.844;4.412;2023-09-19T02:49:22;18.63;;;3.78;;
27796;SDS011;15177;50.844;4.412;2023-09-19T02:51:48;16.65;;;2.78;;
27796;SDS011;15177;50.844;4.412;2023-09-19T02:54:14;18.00;;;3.47;;
27796;SDS011;15177;50.844;4.412;2023-09-19T02:56:41;19.90;;;3.42;;
27796;SDS011;15177;50.844;4.412;2023-09-19T02:59:06;17.00;;;3.30;;
27796;SDS011;15177;50.844;4.412;2023-09-19T03:01:35;16.58;;;3.92;;
27796;SDS011;15177;50.844;4.412;2023-09-19T03:04:02;15.48;;;3.40;;
27796;SDS011;15177;50.844;4.412;2023-09-19T03:06:28;20.00;;;3.67;;
27796;SDS011;15177;50.844;4.412;2023-09-19T03:08:56;19.77;;;3.85;;
27796;SDS011;15177;50.844;4.412;2023-09-19T03:11:22;18.75;;;3.35;;
27796;SDS011;15177;50.844;4.412;2023-09-19T03:13:51;17.02;;;3.28;;
27796;SDS011;15177;50.844;4.412;2023-09-19T03:16:17;16.85;;;3.03;;
27796;SDS011;15177;50.844;4.412;2023-09-19T03:18:46;15.20;;;3.20;;
27796;SDS011;15177;50.844;4.412;2023-09-19T03:21:14;27.92;;;5.35;;
27796;SDS011;15177;50.844;4.412;2023-09-19T03:23:40;13.77;;;3.05;;
27796;SDS011;15177;50.844;4.412;2023-09-19T03:26:06;8.75;;;2.28;;
27796;SDS011;15177;50.844;4.412;2023-09-19T03:28:33;17.38;;;4.07;;
27796;SDS011;15177;50.844;4.412;2023-09-19T03:33:29;12.80;;;3.20;;
27796;SDS011;15177;50.844;4.412;2023-09-19T03:35:59;16.98;;;3.67;;
27796;SDS011;15177;50.844;4.412;2023-09-19T03:38:26;22.55;;;3.53;;
27796;SDS011;15177;50.844;4.412;2023-09-19T03:40:53;13.68;;;3.80;;
27796;SDS011;15177;50.844;4.412;2023-09-19T03:43:19;10.18;;;3.03;;
27796;SDS011;15177;50.844;4.412;2023-09-19T03:45:45;14.95;;;3.03;;
27796;SDS011;15177;50.844;4.412;2023-09-19T03:48:12;11.27;;;2.80;;
27796;SDS011;15177;50.844;4.412;2023-09-19T03:50:38;14.50;;;2.72;;
27796;SDS011;15177;50.844;4.412;2023-09-19T03:53:03;18.33;;;2.97;;
27796;SDS011;15177;50.844;4.412;2023-09-19T03:55:30;19.08;;;3.58;;
27796;SDS011;15177;50.844;4.412;2023-09-19T03:57:56;20.88;;;3.85;;
27796;SDS011;15177;50.844;4.412;2023-09-19T04:00:22;17.15;;;2.85;;
27796;SDS011;15177;50.844;4.412;2023-09-19T04:02:49;16.48;;;3.35;;
27796;SDS011;15177;50.844;4.412;2023-09-19T04:05:17;17.80;;;3.80;;
27796;SDS011;15177;50.844;4.412;2023-09-19T04:07:42;16.63;;;2.95;;
27796;SDS011;15177;50.844;4.412;2023-09-19T04:10:08;11.80;;;4.35;;
27796;SDS011;15177;50.844;4.412;2023-09-19T04:12:36;20.92;;;3.60;;
27796;SDS011;15177;50.844;4.412;2023-09-19T04:15:03;16.02;;;2.85;;
27796;SDS011;15177;50.844;4.412;2023-09-19T04:17:30;11.13;;;3.15;;
27796;SDS011;15177;50.844;4.412;2023-09-19T04:19:58;19.50;;;3.15;;
27796;SDS011;15177;50.844;4.412;2023-09-19T04:22:24;20.00;;;3.58;;
27796;SDS011;15177;50.844;4.412;2023-09-19T04:24:49;18.23;;;3.50;;
27796;SDS011;15177;50.844;4.412;2023-09-19T04:27:15;13.75;;;3.10;;
27796;SDS011;15177;50.844;4.412;2023-09-19T04:29:41;18.95;;;3.30;;
27796;SDS011;15177;50.844;4.412;2023-09-19T04:32:07;18.85;;;3.70;;
27796;SDS011;15177;50.844;4.412;2023-09-19T04:34:33;20.42;;;3.55;;
27796;SDS011;15177;50.844;4.412;2023-09-19T04:36:59;12.00;;;2.97;;
27796;SDS011;15177;50.844;4.412;2023-09-19T04:39:26;19.50;;;3.50;;
27796;SDS011;15177;50.844;4.412;2023-09-19T04:41:52;12.63;;;3.10;;
27796;SDS011;15177;50.844;4.412;2023-09-19T04:44:18;19.48;;;2.72;;
27796;SDS011;15177;50.844;4.412;2023-09-19T04:46:44;17.23;;;3.50;;
27796;SDS011;15177;50.844;4.412;2023-09-19T04:49:11;19.60;;;2.80;;
27796;SDS011;15177;50.844;4.412;2023-09-19T04:51:37;13.30;;;2.63;;
27796;SDS011;15177;50.844;4.412;2023-09-19T04:54:03;12.27;;;3.53;;
27796;SDS011;15177;50.844;4.412;2023-09-19T04:56:29;20.58;;;3.05;;
27796;SDS011;15177;50.844;4.412;2023-09-19T04:58:56;17.17;;;3.72;;
27796;SDS011;15177;50.844;4.412;2023-09-19T05:01:23;12.43;;;3.08;;
27796;SDS011;15177;50.844;4.412;2023-09-19T05:03:49;15.27;;;3.28;;
27796;SDS011;15177;50.844;4.412;2023-09-19T05:06:21;19.27;;;3.20;;
27796;SDS011;15177;50.844;4.412;2023-09-19T05:08:50;13.23;;;2.85;;
27796;SDS011;15177;50.844;4.412;2023-09-19T05:11:17;19.30;;;3.10;;
27796;SDS011;15177;50.844;4.412;2023-09-19T05:13:43;14.07;;;4.10;;
27796;SDS011;15177;50.844;4.412;2023-09-19T05:16:09;13.32;;;3.47;;
27796;SDS011;15177;50.844;4.412;2023-09-19T05:18:37;21.23;;;4.30;;
27796;SDS011;15177;50.844;4.412;2023-09-19T05:21:03;10.60;;;2.88;;
27796;SDS011;15177;50.844;4.412;2023-09-19T05:23:29;17.30;;;3.33;;
27796;SDS011;15177;50.844;4.412;2023-09-19T05:25:55;10.45;;;2.95;;
27796;SDS011;15177;50.844;4.412;2023-09-19T05:28:22;15.02;;;3.75;;
27796;SDS011;15177;50.844;4.412;2023-09-19T05:30:48;12.38;;;3.08;;
27796;SDS011;15177;50.844;4.412;2023-09-19T05:33:14;17.77;;;3.20;;
27796;SDS011;15177;50.844;4.412;2023-09-19T05:35:39;12.90;;;2.83;;
27796;SDS011;15177;50.844;4.412;2023-09-19T05:38:07;14.15;;;3.35;;
27796;SDS011;15177;50.844;4.412;2023-09-19T05:40:38;19.45;;;3.45;;
27796;SDS011;15177;50.844;4.412;2023-09-19T05:43:05;15.75;;;3.92;;
27796;SDS011;15177;50.844;4.412;2023-09-19T05:45:31;17.10;;;3.40;;
27796;SDS011;15177;50.844;4.412;2023-09-19T05:48:05;20.23;;;2.85;;
27796;SDS011;15177;50.844;4.412;2023-09-19T05:50:34;11.63;;;2.67;;
27796;SDS011;15177;50.844;4.412;2023-09-19T05:53:01;18.42;;;3.45;;
27796;SDS011;15177;50.844;4.412;2023-09-19T05:55:26;11.27;;;3.03;;
27796;SDS011;15177;50.844;4.412;2023-09-19T05:57:53;10.90;;;3.22;;
27796;SDS011;15177;50.844;4.412;2023-09-19T06:00:19;19.35;;;4.15;;
27796;SDS011;15177;50.844;4.412;2023-09-19T06:02:50;25.85;;;3.90;;
27796;SDS011;15177;50.844;4.412;2023-09-19T06:05:17;17.88;;;3.33;;
27796;SDS011;15177;50.844;4.412;2023-09-19T06:07:43;23.08;;;3.20;;
27796;SDS011;15177;50.844;4.412;2023-09-19T06:10:09;14.50;;;2.72;;
27796;SDS011;15177;50.844;4.412;2023-09-19T06:12:44;17.25;;;2.95;;
27796;SDS011;15177;50.844;4.412;2023-09-19T06:15:10;19.10;;;5.00;;
27796;SDS011;15177;50.844;4.412;2023-09-19T06:17:41;17.27;;;2.92;;
27796;SDS011;15177;50.844;4.412;2023-09-19T06:20:21;19.45;;;3.58;;
27796;SDS011;15177;50.844;4.412;2023-09-19T06:22:48;17.63;;;3.13;;
27796;SDS011;15177;50.844;4.412;2023-09-19T06:25:15;14.05;;;2.60;;
27796;SDS011;15177;50.844;4.412;2023-09-19T06:27:48;15.15;;;3.00;;
27796;SDS011;15177;50.844;4.412;2023-09-19T06:30:17;14.00;;;3.00;;
27796;SDS011;15177;50.844;4.412;2023-09-19T06:32:43;14.45;;;2.90;;
27796;SDS011;15177;50.844;4.412;2023-09-19T06:35:13;15.27;;;2.92;;
27796;SDS011;15177;50.844;4.412;2023-09-19T06:37:40;15.50;;;2.90;;
27796;SDS011;15177;50.844;4.412;2023-09-19T06:40:10;14.30;;;2.90;;
27796;SDS011;15177;50.844;4.412;2023-09-19T06:45:12;15.07;;;2.88;;
27796;SDS011;15177;50.844;4.412;2023-09-19T06:47:43;15.00;;;2.83;;
27796;SDS011;15177;50.844;4.412;2023-09-19T06:50:10;19.52;;;3.33;;
27796;SDS011;15177;50.844;4.412;2023-09-19T06:52:39;22.25;;;3.97;;
27796;SDS011;15177;50.844;4.412;2023-09-19T06:55:08;19.50;;;3.30;;
27796;SDS011;15177;50.844;4.412;2023-09-19T06:57:38;18.45;;;2.85;;
27796;SDS011;15177;50.844;4.412;2023-09-19T07:00:08;12.20;;;3.20;;
27796;SDS011;15177;50.844;4.412;2023-09-19T07:02:43;16.88;;;2.78;;
27796;SDS011;15177;50.844;4.412;2023-09-19T07:05:09;8.60;;;2.45;;
27796;SDS011;15177;50.844;4.412;2023-09-19T07:07:36;16.67;;;3.72;;
27796;SDS011;15177;50.844;4.412;2023-09-19T07:10:03;11.70;;;2.97;;
27796;SDS011;15177;50.844;4.412;2023-09-19T07:12:37;16.55;;;3.83;;
27796;SDS011;15177;50.844;4.412;2023-09-19T07:15:03;22.55;;;3.65;;
27796;SDS011;15177;50.844;4.412;2023-09-19T07:17:30;13.43;;;2.75;;
27796;SDS011;15177;50.844;4.412;2023-09-19T07:19:58;15.95;;;2.85;;
27796;SDS011;15177;50.844;4.412;2023-09-19T07:22:26;19.95;;;4.28;;
27796;SDS011;15177;50.844;4.412;2023-09-19T07:24:52;12.45;;;2.58;;
27796;SDS011;15177;50.844;4.412;2023-09-19T07:27:17;10.55;;;2.65;;
27796;SDS011;15177;50.844;4.412;2023-09-19T07:29:43;16.88;;;2.50;;
27796;SDS011;15177;50.844;4.412;2023-09-19T07:32:10;14.07;;;2.38;;
27796;SDS011;15177;50.844;4.412;2023-09-19T07:34:36;9.63;;;2.97;;
27796;SDS011;15177;50.844;4.412;2023-09-19T07:37:06;13.32;;;3.42;;
27796;SDS011;15177;50.844;4.412;2023-09-19T07:39:33;16.83;;;2.88;;
27796;SDS011;15177;50.844;4.412;2023-09-19T07:41:58;14.07;;;2.53;;
27796;SDS011;15177;50.844;4.412;2023-09-19T07:44:24;6.18;;;2.53;;
27796;SDS011;15177;50.844;4.412;2023-09-19T07:46:54;15.80;;;3.75;;
27796;SDS011;15177;50.844;4.412;2023-09-19T07:49:20;8.93;;;2.75;;
27796;SDS011;15177;50.844;4.412;2023-09-19T07:51:45;9.05;;;2.33;;
27796;SDS011;15177;50.844;4.412;2023-09-19T07:54:12;12.00;;;2.78;;
27796;SDS011;15177;50.844;4.412;2023-09-19T07:56:38;15.77;;;3.30;;
27796;SDS011;15177;50.844;4.412;2023-09-19T07:59:03;14.88;;;3.55;;
27796;SDS011;15177;50.844;4.412;2023-09-19T08:01:29;19.20;;;3.05;;
27796;SDS011;15177;50.844;4.412;2023-09-19T08:03:56;19.50;;;4.00;;
27796;SDS011;15177;50.844;4.412;2023-09-19T08:06:21;17.75;;;3.00;;
27796;SDS011;15177;50.844;4.412;2023-09-19T08:08:50;19.95;;;3.50;;
27796;SDS011;15177;50.844;4.412;2023-09-19T08:11:18;12.70;;;2.63;;
27796;SDS011;15177;50.844;4.412;2023-09-19T08:13:46;14.68;;;2.95;;
27796;SDS011;15177;50.844;4.412;2023-09-19T08:16:14;13.63;;;3.30;;
27796;SDS011;15177;50.844;4.412;2023-09-19T08:18:41;14.20;;;2.70;;
27796;SDS011;15177;50.844;4.412;2023-09-19T08:21:08;19.13;;;3.10;;
27796;SDS011;15177;50.844;4.412;2023-09-19T08:23:37;11.77;;;3.10;;
27796;SDS011;15177;50.844;4.412;2023-09-19T08:26:03;10.65;;;2.85;;
27796;SDS011;15177;50.844;4.412;2023-09-19T08:28:33;13.82;;;3.47;;
27796;SDS011;15177;50.844;4.412;2023-09-19T08:31:03;11.48;;;3.25;;
27796;SDS011;15177;50.844;4.412;2023-09-19T08:33:33;13.38;;;2.60;;
27796;SDS011;15177;50.844;4.412;2023-09-19T08:35:59;16.60;;;3.40;;
27796;SDS011;15177;50.844;4.412;2023-09-19T08:38:26;13.45;;;2.95;;
27796;SDS011;15177;50.844;4.412;2023-09-19T08:40:59;14.93;;;3.45;;
27796;SDS011;15177;50.844;4.412;2023-09-19T08:43:28;11.35;;;2.88;;
27796;SDS011;15177;50.844;4.412;2023-09-19T08:45:58;15.30;;;2.80;;
27796;SDS011;15177;50.844;4.412;2023-09-19T08:48:44;15.35;;;3.05;;
27796;SDS011;15177;50.844;4.412;2023-09-19T08:51:18;14.10;;;2.53;;
27796;SDS011;15177;50.844;4.412;2023-09-19T08:54:18;10.95;;;3.00;;
27796;SDS011;15177;50.844;4.412;2023-09-19T08:56:44;10.32;;;2.63;;
27796;SDS011;15177;50.844;4.412;2023-09-19T08:59:12;8.82;;;2.92;;
27796;SDS011;15177;50.844;4.412;2023-09-19T09:01:39;14.40;;;3.22;;
27796;SDS011;15177;50.844;4.412;2023-09-19T09:04:13;9.85;;;2.40;;
27796;SDS011;15177;50.844;4.412;2023-09-19T09:06:44;10.07;;;2.70;;
27796;SDS011;15177;50.844;4.412;2023-09-19T09:09:13;6.97;;;2.15;;
27796;SDS011;15177;50.844;4.412;2023-09-19T09:11:40;9.57;;;2.67;;
27796;SDS011;15177;50.844;4.412;2023-09-19T09:14:06;9.32;;;2.45;;
27796;SDS011;15177;50.844;4.412;2023-09-19T09:16:33;10.55;;;2.88;;
27796;SDS011;15177;50.844;4.412;2023-09-19T09:19:00;5.82;;;1.95;;
27796;SDS011;15177;50.844;4.412;2023-09-19T09:21:26;13.02;;;2.97;;
27796;SDS011;15177;50.844;4.412;2023-09-19T09:23:53;11.13;;;2.30;;
27796;SDS011;15177;50.844;4.412;2023-09-19T09:29:14;9.55;;;2.53;;
27796;SDS011;15177;50.844;4.412;2023-09-19T09:31:40;9.98;;;2.38;;
27796;SDS011;15177;50.844;4.412;2023-09-19T09:34:07;8.32;;;2.40;;
27796;SDS011;15177;50.844;4.412;2023-09-19T09:36:38;12.80;;;2.65;;
27796;SDS011;15177;50.844;4.412;2023-09-19T09:39:06;12.15;;;2.72;;
27796;SDS011;15177;50.844;4.412;2023-09-19T09:41:44;9.52;;;2.40;;
27796;SDS011;15177;50.844;4.412;2023-09-19T09:44:15;17.27;;;2.25;;
27796;SDS011;15177;50.844;4.412;2023-09-19T09:46:45;9.68;;;2.20;;
27796;SDS011;15177;50.844;4.412;2023-09-19T09:49:23;12.90;;;2.70;;
27796;SDS011;15177;50.844;4.412;2023-09-19T09:54:33;8.43;;;2.25;;
27796;SDS011;15177;50.844;4.412;2023-09-19T09:57:06;11.00;;;2.45;;
27796;SDS011;15177;50.844;4.412;2023-09-19T09:59:57;11.48;;;2.08;;
27796;SDS011;15177;50.844;4.412;2023-09-19T10:02:41;8.05;;;1.80;;
27796;SDS011;15177;50.844;4.412;2023-09-19T10:05:18;10.93;;;1.88;;
27796;SDS011;15177;50.844;4.412;2023-09-19T10:07:45;13.73;;;2.50;;
27796;SDS011;15177;50.844;4.412;2023-09-19T10:10:31;9.23;;;2.25;;
27796;SDS011;15177;50.844;4.412;2023-09-19T10:13:07;9.45;;;2.30;;
27796;SDS011;15177;50.844;4.412;2023-09-19T10:15:37;8.30;;;2.08;;
27796;SDS011;15177;50.844;4.412;2023-09-19T10:18:06;10.18;;;2.03;;
27796;SDS011;15177;50.844;4.412;2023-09-19T10:20:35;8.52;;;1.85;;
27796;SDS011;15177;50.844;4.412;2023-09-19T10:23:10;9.77;;;2.78;;
27796;SDS011;15177;50.844;4.412;2023-09-19T10:25:39;10.30;;;2.38;;
27796;SDS011;15177;50.844;4.412;2023-09-19T10:28:12;6.50;;;1.60;;
27796;SDS011;15177;50.844;4.412;2023-09-19T10:30:49;4.47;;;1.77;;
27796;SDS011;15177;50.844;4.412;2023-09-19T10:33:18;7.93;;;1.83;;
27796;SDS011;15177;50.844;4.412;2023-09-19T10:35:51;3.35;;;1.52;;
27796;SDS011;15177;50.844;4.412;2023-09-19T10:38:18;6.32;;;1.77;;
27796;SDS011;15177;50.844;4.412;2023-09-19T10:40:48;8.07;;;1.85;;
27796;SDS011;15177;50.844;4.412;2023-09-19T10:43:16;4.85;;;1.60;;
27796;SDS011;15177;50.844;4.412;2023-09-19T10:45:43;7.95;;;1.95;;
27796;SDS011;15177;50.844;4.412;2023-09-19T10:48:10;9.20;;;2.38;;
27796;SDS011;15177;50.844;4.412;2023-09-19T10:50:43;6.15;;;1.70;;
27796;SDS011;15177;50.844;4.412;2023-09-19T10:53:24;7.68;;;1.58;;
27796;SDS011;15177;50.844;4.412;2023-09-19T10:55:55;7.70;;;1.70;;
27796;SDS011;15177;50.844;4.412;2023-09-19T10:58:28;5.70;;;2.10;;
27796;SDS011;15177;50.844;4.412;2023-09-19T11:00:57;6.68;;;1.83;;
27796;SDS011;15177;50.844;4.412;2023-09-19T11:03:31;7.00;;;1.77;;
27796;SDS011;15177;50.844;4.412;2023-09-19T11:09:15;8.18;;;1.42;;
27796;SDS011;15177;50.844;4.412;2023-09-19T11:11:56;12.65;;;1.35;;
27796;SDS011;15177;50.844;4.412;2023-09-19T11:28:28;8.40;;;1.65;;
27796;SDS011;15177;50.844;4.412;2023-09-19T11:30:48;7.38;;;1.98;;
27796;SDS011;15177;50.844;4.412;2023-09-19T11:33:15;6.70;;;1.55;;
27796;SDS011;15177;50.844;4.412;2023-09-19T11:43:54;5.95;;;1.33;;
27796;SDS011;15177;50.844;4.412;2023-09-19T11:49:17;6.13;;;1.38;;
27796;SDS011;15177;50.844;4.412;2023-09-19T11:51:50;6.50;;;1.58;;
27796;SDS011;15177;50.844;4.412;2023-09-19T11:54:19;10.27;;;1.77;;
27796;SDS011;15177;50.844;4.412;2023-09-19T11:56:50;5.90;;;1.35;;
27796;SDS011;15177;50.844;4.412;2023-09-19T11:59:19;8.75;;;1.30;;
27796;SDS011;15177;50.844;4.412;2023-09-19T12:01:51;3.80;;;1.50;;
27796;SDS011;15177;50.844;4.412;2023-09-19T12:04:31;8.73;;;2.05;;
27796;SDS011;15177;50.844;4.412;2023-09-19T12:07:13;7.10;;;1.35;;
27796;SDS011;15177;50.844;4.412;2023-09-19T12:09:47;8.50;;;1.67;;
27796;SDS011;15177;50.844;4.412;2023-09-19T12:12:24;3.22;;;1.50;;
27796;SDS011;15177;50.844;4.412;2023-09-19T12:14:55;6.80;;;1.50;;
27796;SDS011;15177;50.844;4.412;2023-09-19T12:20:04;6.40;;;1.33;;
27796;SDS011;15177;50.844;4.412;2023-09-19T12:22:41;6.95;;;1.77;;
27796;SDS011;15177;50.844;4.412;2023-09-19T12:25:09;7.80;;;1.77;;
27796;SDS011;15177;50.844;4.412;2023-09-19T12:30:12;5.22;;;1.80;;
27796;SDS011;15177;50.844;4.412;2023-09-19T12:32:48;6.05;;;1.73;;
27796;SDS011;15177;50.844;4.412;2023-09-19T12:35:27;10.23;;;1.58;;
27796;SDS011;15177;50.844;4.412;2023-09-19T12:37:59;6.63;;;1.30;;
27796;SDS011;15177;50.844;4.412;2023-09-19T12:40:25;10.80;;;2.00;;
27796;SDS011;15177;50.844;4.412;2023-09-19T12:42:53;7.78;;;1.50;;
27796;SDS011;15177;50.844;4.412;2023-09-19T12:45:27;9.82;;;1.92;;
27796;SDS011;15177;50.844;4.412;2023-09-19T12:53:35;7.82;;;1.50;;
27796;SDS011;15177;50.844;4.412;2023-09-19T12:56:07;7.72;;;1.73;;
27796;SDS011;15177;50.844;4.412;2023-09-19T12:58:51;4.88;;;1.50;;
27796;SDS011;15177;50.844;4.412;2023-09-19T13:01:20;4.65;;;2.15;;
27796;SDS011;15177;50.844;4.412;2023-09-19T13:06:54;4.82;;;1.30;;
27796;SDS011;15177;50.844;4.412;2023-09-19T13:09:25;7.97;;;1.50;;
27796;SDS011;15177;50.844;4.412;2023-09-19T13:12:04;5.22;;;1.45;;
27796;SDS011;15177;50.844;4.412;2023-09-19T13:15:06;6.65;;;1.35;;
27796;SDS011;15177;50.844;4.412;2023-09-19T13:17:45;7.03;;;1.60;;
27796;SDS011;15177;50.844;4.412;2023-09-19T13:20:25;3.30;;;1.08;;
27796;SDS011;15177;50.844;4.412;2023-09-19T13:22:57;6.22;;;1.52;;
27796;SDS011;15177;50.844;4.412;2023-09-19T13:25:37;4.50;;;1.25;;
27796;SDS011;15177;50.844;4.412;2023-09-19T13:28:05;3.30;;;1.10;;
27796;SDS011;15177;50.844;4.412;2023-09-19T13:30:30;11.45;;;2.08;;
27796;SDS011;15177;50.844;4.412;2023-09-19T13:33:06;5.10;;;1.80;;
27796;SDS011;15177;50.844;4.412;2023-09-19T13:35:35;4.38;;;1.50;;
27796;SDS011;15177;50.844;4.412;2023-09-19T13:38:05;12.20;;;1.42;;
27796;SDS011;15177;50.844;4.412;2023-09-19T13:40:34;5.53;;;1.65;;
27796;SDS011;15177;50.844;4.412;2023-09-19T13:43:00;4.22;;;1.52;;
27796;SDS011;15177;50.844;4.412;2023-09-19T13:45:26;6.40;;;1.65;;
27796;SDS011;15177;50.844;4.412;2023-09-19T13:47:55;8.10;;;1.60;;
27796;SDS011;15177;50.844;4.412;2023-09-19T13:50:21;10.50;;;1.30;;
27796;SDS011;15177;50.844;4.412;2023-09-19T13:52:49;7.07;;;1.73;;
27796;SDS011;15177;50.844;4.412;2023-09-19T13:55:19;9.27;;;1.48;;
27796;SDS011;15177;50.844;4.412;2023-09-19T13:57:47;7.60;;;1.90;;
27796;SDS011;15177;50.844;4.412;2023-09-19T14:00:19;10.55;;;1.80;;
27796;SDS011;15177;50.844;4.412;2023-09-19T14:02:47;5.30;;;1.33;;
27796;SDS011;15177;50.844;4.412;2023-09-19T14:05:14;6.18;;;1.88;;
27796;SDS011;15177;50.844;4.412;2023-09-19T14:07:42;8.98;;;1.73;;
27796;SDS011;15177;50.844;4.412;2023-09-19T14:10:08;8.77;;;2.22;;
27796;SDS011;15177;50.844;4.412;2023-09-19T14:12:38;4.82;;;1.60;;
27796;SDS011;15177;50.844;4.412;2023-09-19T14:15:10;7.00;;;1.50;;
27796;SDS011;15177;50.844;4.412;2023-09-19T14:17:37;7.20;;;1.73;;
27796;SDS011;15177;50.844;4.412;2023-09-19T14:20:03;9.25;;;1.63;;
27796;SDS011;15177;50.844;4.412;2023-09-19T14:22:31;8.18;;;1.73;;
27796;SDS011;15177;50.844;4.412;2023-09-19T14:24:58;8.32;;;2.08;;
27796;SDS011;15177;50.844;4.412;2023-09-19T14:27:24;11.75;;;2.60;;
27796;SDS011;15177;50.844;4.412;2023-09-19T14:29:50;7.45;;;2.25;;
27796;SDS011;15177;50.844;4.412;2023-09-19T14:32:16;8.52;;;2.00;;
27796;SDS011;15177;50.844;4.412;2023-09-19T14:34:42;10.07;;;1.80;;
27796;SDS011;15177;50.844;4.412;2023-09-19T14:37:09;8.65;;;1.60;;
27796;SDS011;15177;50.844;4.412;2023-09-19T14:39:36;10.68;;;2.00;;
27796;SDS011;15177;50.844;4.412;2023-09-19T14:42:04;6.43;;;1.85;;
27796;SDS011;15177;50.844;4.412;2023-09-19T14:44:29;5.32;;;1.38;;
27796;SDS011;15177;50.844;4.412;2023-09-19T14:46:55;8.30;;;1.90;;
27796;SDS011;15177;50.844;4.412;2023-09-19T14:49:21;14.15;;;2.10;;
27796;SDS011;15177;50.844;4.412;2023-09-19T14:51:46;10.55;;;1.70;;
27796;SDS011;15177;50.844;4.412;2023-09-19T14:54:13;12.35;;;2.25;;
27796;SDS011;15177;50.844;4.412;2023-09-19T14:56:42;7.57;;;1.83;;
27796;SDS011;15177;50.844;4.412;2023-09-19T14:59:07;8.60;;;1.95;;
27796;SDS011;15177;50.844;4.412;2023-09-19T15:01:35;6.60;;;2.05;;
27796;SDS011;15177;50.844;4.412;2023-09-19T15:04:01;10.43;;;1.92;;
27796;SDS011;15177;50.844;4.412;2023-09-19T15:06:27;11.77;;;2.25;;
27796;SDS011;15177;50.844;4.412;2023-09-19T15:08:53;6.72;;;1.75;;
27796;SDS011;15177;50.844;4.412;2023-09-19T15:11:19;9.23;;;1.77;;
27796;SDS011;15177;50.844;4.412;2023-09-19T15:13:45;10.80;;;2.88;;
27796;SDS011;15177;50.844;4.412;2023-09-19T15:16:12;5.50;;;1.85;;
27796;SDS011;15177;50.844;4.412;2023-09-19T15:18:39;10.65;;;2.08;;
27796;SDS011;15177;50.844;4.412;2023-09-19T15:21:07;8.80;;;1.83;;
27796;SDS011;15177;50.844;4.412;2023-09-19T15:23:35;7.00;;;1.95;;
27796;SDS011;15177;50.844;4.412;2023-09-19T15:26:02;9.57;;;2.35;;
27796;SDS011;15177;50.844;4.412;2023-09-19T15:28:29;9.82;;;1.98;;
27796;SDS011;15177;50.844;4.412;2023-09-19T15:31:03;7.10;;;1.83;;
27796;SDS011;15177;50.844;4.412;2023-09-19T15:33:30;12.13;;;2.00;;
27796;SDS011;15177;50.844;4.412;2023-09-19T15:36:15;7.85;;;2.00;;
27796;SDS011;15177;50.844;4.412;2023-09-19T15:38:57;7.30;;;1.58;;
27796;SDS011;15177;50.844;4.412;2023-09-19T15:41:32;9.75;;;2.05;;
27796;SDS011;15177;50.844;4.412;2023-09-19T15:43:59;10.18;;;3.25;;
27796;SDS011;15177;50.844;4.412;2023-09-19T15:46:27;8.20;;;1.77;;
27796;SDS011;15177;50.844;4.412;2023-09-19T15:48:54;5.72;;;1.83;;
27796;SDS011;15177;50.844;4.412;2023-09-19T15:51:20;3.80;;;1.65;;
27796;SDS011;15177;50.844;4.412;2023-09-19T15:53:47;6.20;;;1.55;;
27796;SDS011;15177;50.844;4.412;2023-09-19T15:56:14;6.93;;;2.00;;
27796;SDS011;15177;50.844;4.412;2023-09-19T15:58:42;5.63;;;1.80;;